Date,TemperatureHighF,TemperatureAvgF,TemperatureLowF,DewpointHighF,DewpointAvgF,DewpointLowF,HumidityHigh,HumidityAvg,HumidityLow,PressureMaxIn,PressureMinIn,WindSpeedMaxMPH,WindSpeedAvgMPH,GustSpeedMaxMPH,PrecipitationSumIn
2013-3-1,43,34,24,28,14,4,74,47,22,0.00,40.00,7,4,15,0.00
2013-3-2,57,46,37,28,25,22,70,47,27,0.00,40.00,9,5,24,0.00
2013-3-3,55,45,30,27,25,19,85,47,29,0.00,40.00,12,4,30,0.00
2013-3-4,29,22,15,19,6,-2,66,50,35,0.00,40.00,14,10,39,0.00
2013-3-5,32,20,9,9,3,-3,60,47,30,0.00,40.00,8,4,28,0.00
2013-3-6,46,31,16,19,12,4,66,48,31,0.00,40.00,8,4,16,0.00
2013-3-7,56,40,30,24,21,18,69,47,28,0.00,40.00,9,4,15,0.00
2013-3-8,46,33,26,27,24,22,86,69,46,0.00,40.00,6,4,13,0.00
2013-3-9,38,31,24,25,19,8,86,63,32,0.00,40.00,18,9,42,0.00
2013-3-10,42,30,17,16,2,-15,70,37,9,0.00,40.00,12,6,30,0.00
2013-3-11,43,34,27,25,15,1,65,45,27,0.00,40.00,13,7,39,0.00
2013-3-12,42,28,19,9,0,-6,49,31,13,0.00,40.00,11,7,39,0.00
2013-3-13,61,46,27,23,18,0,47,33,22,0.00,40.00,10,5,21,0.00
2013-3-14,69,52,38,27,23,21,57,35,17,0.00,40.00,9,5,18,0.00
2013-3-15,66,51,38,27,22,18,55,35,17,0.00,40.00,11,7,26,0.00
2013-3-16,35,30,24,32,27,23,97,90,70,0.00,40.00,4,2,14,0.14
2013-3-17,50,34,26,33,26,11,96,73,43,0.00,40.00,15,7,36,0.24
2013-3-18,37,28,19,13,4,-8,58,39,14,0.00,40.00,12,7,32,0.05
2013-3-19,35,27,16,14,10,2,64,49,30,0.00,40.00,9,6,25,0.00
2013-3-20,48,28,10,15,8,2,71,46,20,0.00,40.00,10,5,20,0.00
2013-3-21,39,28,20,23,18,12,93,65,48,0.00,40.00,7,4,14,0.00
2013-3-22,38,26,20,25,21,14,93,81,50,0.00,40.00,7,4,16,0.04
2013-3-23,32,19,8,14,7,3,84,62,30,0.00,40.00,8,4,18,0.36
2013-3-24,24,12,1,5,0,-5,81,61,39,0.00,40.00,11,6,24,0.02
2013-3-25,33,17,0,15,4,-7,85,60,33,0.00,40.00,8,4,11,0.00
2013-3-26,47,31,11,18,10,1,85,44,19,0.00,40.00,9,5,13,0.00
2013-3-27,51,35,21,20,13,8,63,44,25,0.00,40.00,9,7,17,0.00
2013-3-28,59,50,35,26,24,20,70,38,23,0.00,40.00,6,4,12,0.00
2013-3-29,65,48,30,31,25,19,78,46,17,0.00,40.00,8,6,20,0.00
2013-3-30,52,42,36,38,30,-100,88,65,36,0.00,40.00,8,5,24,0.07
2013-3-31,52,37,27,28,24,17,90,62,38,0.00,40.00,8,5,19,0.01